Terminal Aerodrome Forecast
Issued by NWS

Home | Current Version | Previous Version | Text Only | Print | Product List | Glossary On
Versions: 1 2 3 4 5 6 7 8 9 10 11 12 13 14 15 16 17 18 19 20 21 22 23 24 25
000
FTUS45 KGGW 212300 AAA
TAFOLF
TAF AMD
KOLF 212355Z 2200/2224 VRB06KT 6SM -TSRA BKN035CB BKN060
      TEMPO 2200/2203 2SM RA OVC020
     FM220300 02007KT P6SM -SHRA BKN040
     FM221700 06010KT P6SM -SHRA OVC025=

USA.gov is the U.S. government's official web portal to all federal, state and local government web resources and services.